Temp: 0.8°C   Baro: 1011.4mb
  Wind: 0.0mph   Dir: N (352°)
  Rain: 0.0mm (0.0mm/hr)
  Solar: 0W/m2  Hum: 85%

Historic data

Bath Spa Weather Station Historical Data
Daily Summary for October 24, 2021 Units:  Metric    English   Both
Daily Weekly Monthly Yearly Custom
  High: Low: Average:
Temperature: 14.1 °C 10.2 °C 12.2 °C
Dew Point: 13.1 °C 7.4 °C 10.1 °C
Humidity: 91% 76% 84%
Wind Speed: 17.1km/h 0.6km/h 6.1km/h
Wind Gust: 32.2km/h - -
Wind- - SSW
Pressure: 1021.2 hPa 1014.1 hPa -
Precipitation: 0.25 mm    
Historical Graphs
 
 
Tabular Data for October 24, 2021
Time Temperature Dew Point Pressure Wind Wind Speed Wind Gust Humidity Rainfall Rate (Hourly) solar
00:04 11.6 °C 8.1 °C 1021.2 hPa SSW 6.9 km/h 12.9 km/h 76.6% 0 mm 0 W/m2
00:08 11.6 °C 8.2 °C 1020.9 hPa SSW 8 km/h 12.9 km/h 77% 0 mm 0 W/m2
00:14 11.6 °C 8 °C 1020.9 hPa SSW 3.5 km/h 12.9 km/h 76% 0 mm 0 W/m2
00:19 11.6 °C 8 °C 1020.9 hPa SSW 5 km/h 9.7 km/h 76% 0 mm 0 W/m2
00:24 11.6 °C 8.1 °C 1020.9 hPa SSW 6.4 km/h 11.3 km/h 76.6% 0 mm 0 W/m2
00:29 11.5 °C 8.1 °C 1020.9 hPa SSW 4 km/h 8 km/h 77% 0 mm 0 W/m2
00:34 11.4 °C 8 °C 1020.9 hPa SSW 3.7 km/h 8 km/h 77% 0 mm 0 W/m2
00:39 11.3 °C 7.9 °C 1020.9 hPa SSW 4.8 km/h 9.7 km/h 77% 0 mm 0 W/m2
00:44 11.3 °C 7.9 °C 1020.9 hPa SSW 4.3 km/h 9.7 km/h 77% 0 mm 0 W/m2
00:49 11.2 °C 7.8 °C 1020.9 hPa SSW 3.1 km/h 8 km/h 77.2% 0 mm 0 W/m2
00:54 11.2 °C 7.9 °C 1020.9 hPa SSW 5.1 km/h 11.3 km/h 77.8% 0 mm 0 W/m2
00:59 11.2 °C 7.9 °C 1020.9 hPa SSW 4.5 km/h 11.3 km/h 78% 0 mm 0 W/m2
01:04 11.2 °C 7.9 °C 1020.5 hPa SSW 5.1 km/h 11.3 km/h 78% 0 mm 0 W/m2
01:09 11.2 °C 7.9 °C 1020.5 hPa SSW 5.1 km/h 8 km/h 78% 0 mm 0 W/m2
01:14 11.2 °C 8 °C 1020.5 hPa SSW 4.8 km/h 11.3 km/h 78% 0 mm 0 W/m2
01:19 11.2 °C 8.1 °C 1020.5 hPa SSW 4.3 km/h 8 km/h 78% 0 mm 0 W/m2
01:24 11.3 °C 8.1 °C 1020.5 hPa SSW 4.8 km/h 11.3 km/h 78% 0 mm 0 W/m2
01:29 11.3 °C 8.1 °C 1020.5 hPa SSW 4 km/h 8 km/h 78% 0 mm 0 W/m2
01:34 11.3 °C 8.1 °C 1020.5 hPa SSW 3.9 km/h 9.7 km/h 78% 0 mm 0 W/m2
01:39 11.3 °C 8.1 °C 1020.5 hPa SSW 5 km/h 9.7 km/h 77.8% 0 mm 0 W/m2
01:44 11.3 °C 8.1 °C 1020.5 hPa SSW 4.3 km/h 8 km/h 78% 0 mm 0 W/m2
01:49 11.3 °C 8.1 °C 1020.2 hPa SSW 4.3 km/h 8 km/h 78% 0 mm 0 W/m2
01:54 11.3 °C 8.1 °C 1020.2 hPa SSW 5.1 km/h 9.7 km/h 78% 0 mm 0 W/m2
01:59 11.3 °C 8.1 °C 1020.2 hPa SSW 4.2 km/h 9.7 km/h 78% 0 mm 0 W/m2
02:04 11.3 °C 8.1 °C 1020.2 hPa SSW 4.3 km/h 11.3 km/h 78% 0 mm 0 W/m2
02:09 11.3 °C 8.1 °C 1019.9 hPa SSW 3.2 km/h 9.7 km/h 78% 0 mm 0 W/m2
02:14 11.3 °C 8.1 °C 1019.9 hPa SSW 1 km/h 6.4 km/h 78% 0 mm 0 W/m2
02:19 11.3 °C 8.1 °C 1019.9 hPa SSW 4 km/h 8 km/h 78% 0 mm 0 W/m2
02:23 11.3 °C 8.1 °C 1019.9 hPa SSW 1.9 km/h 8 km/h 78% 0 mm 0 W/m2
02:28 11.3 °C 8.1 °C 1019.9 hPa SSW 3.5 km/h 6.4 km/h 78% 0 mm 0 W/m2
02:34 11.3 °C 8.1 °C 1019.9 hPa SSW 4.8 km/h 11.3 km/h 78% 0 mm 0 W/m2
02:39 11.3 °C 8.1 °C 1019.5 hPa SSW 5.1 km/h 9.7 km/h 78% 0 mm 0 W/m2
02:44 11.3 °C 8.2 °C 1019.5 hPa SSW 3.9 km/h 8 km/h 78.2% 0 mm 0 W/m2
02:49 11.3 °C 8.2 °C 1019.5 hPa SSW 2.1 km/h 8 km/h 78.4% 0 mm 0 W/m2
02:54 11.3 °C 8.2 °C 1019.5 hPa SSW 4.5 km/h 8 km/h 78.4% 0 mm 0 W/m2
02:59 11.3 °C 8.3 °C 1019.5 hPa SSW 4 km/h 9.7 km/h 79% 0 mm 0 W/m2
03:04 11.3 °C 8.3 °C 1019.5 hPa SSW 4.5 km/h 8 km/h 79% 0 mm 0 W/m2
03:09 11.3 °C 8.3 °C 1019.5 hPa SSW 4 km/h 9.7 km/h 79% 0 mm 0 W/m2
03:14 11.2 °C 8.2 °C 1019.2 hPa SSW 2.1 km/h 9.7 km/h 79% 0 mm 0 W/m2
03:19 11.1 °C 8.1 °C 1019.2 hPa SSW 5.1 km/h 6.4 km/h 79% 0 mm 0 W/m2
03:24 11.1 °C 8.1 °C 1019.2 hPa SSW 4.8 km/h 9.7 km/h 79% 0 mm 0 W/m2
03:29 10.9 °C 7.9 °C 1019.2 hPa SSW 4 km/h 9.7 km/h 79.4% 0 mm 0 W/m2
03:34 10.8 °C 8.1 °C 1019.2 hPa SSW 3.4 km/h 8 km/h 80% 0 mm 0 W/m2
03:39 10.9 °C 8.1 °C 1019.2 hPa SSW 2.4 km/h 6.4 km/h 80% 0 mm 0 W/m2
03:44 11 °C 8.2 °C 1019.2 hPa SSW 4.5 km/h 9.7 km/h 80% 0 mm 0 W/m2
03:49 11.1 °C 8.3 °C 1018.8 hPa SSW 1.8 km/h 6.4 km/h 80% 0 mm 0 W/m2
03:54 11 °C 8.2 °C 1018.8 hPa SSW 4 km/h 11.3 km/h 80% 0 mm 0 W/m2
03:59 10.9 °C 8.2 °C 1018.8 hPa SSW 4 km/h 8 km/h 80% 0 mm 0 W/m2
04:04 10.9 °C 8.1 °C 1018.8 hPa SSW 4 km/h 8 km/h 80% 0 mm 0 W/m2
04:09 10.9 °C 8.1 °C 1018.5 hPa SSW 4 km/h 11.3 km/h 80% 0 mm 0 W/m2
04:14 10.9 °C 8 °C 1018.8 hPa SSW 4.8 km/h 9.7 km/h 79.4% 0 mm 0 W/m2
04:19 11.1 °C 8 °C 1018.5 hPa SSW 6.6 km/h 11.3 km/h 78.8% 0 mm 0 W/m2
04:24 11.1 °C 7.9 °C 1018.5 hPa SSW 5.3 km/h 11.3 km/h 78% 0 mm 0 W/m2
04:29 11.1 °C 7.9 °C 1018.5 hPa SSW 6.1 km/h 11.3 km/h 78% 0 mm 0 W/m2
04:34 11.1 °C 7.8 °C 1018.5 hPa SSW 5.5 km/h 11.3 km/h 77.8% 0 mm 0 W/m2
04:39 11.1 °C 7.8 °C 1018.5 hPa SSW 8 km/h 16.1 km/h 77.2% 0 mm 0 W/m2
04:43 11.1 °C 7.7 °C 1018.5 hPa SSW 6.4 km/h 11.3 km/h 77% 0 mm 0 W/m2
04:49 11.2 °C 7.6 °C 1018.2 hPa SSW 9 km/h 14.5 km/h 76.2% 0 mm 0 W/m2
04:54 11.2 °C 7.6 °C 1018.2 hPa SSW 6.8 km/h 12.9 km/h 76% 0 mm 0 W/m2
04:59 11.1 °C 7.6 °C 1018.2 hPa SSW 5.3 km/h 14.5 km/h 76.6% 0 mm 0 W/m2
05:04 11.1 °C 7.7 °C 1018.2 hPa SSW 7.1 km/h 14.5 km/h 77% 0 mm 0 W/m2
05:09 11.1 °C 7.5 °C 1018.2 hPa SSW 7.2 km/h 11.3 km/h 76% 0 mm 0 W/m2
05:14 11.1 °C 7.5 °C 1018.2 hPa SSW 5.5 km/h 11.3 km/h 76% 0 mm 0 W/m2
05:19 11.1 °C 7.6 °C 1018.2 hPa SSW 5 km/h 11.3 km/h 76.6% 0 mm 0 W/m2
05:24 11.1 °C 7.7 °C 1018.2 hPa SSW 8.5 km/h 12.9 km/h 77% 0 mm 0 W/m2
05:29 11.1 °C 7.7 °C 1018.2 hPa SSW 5.8 km/h 11.3 km/h 77% 0 mm 0 W/m2
05:34 11.1 °C 7.7 °C 1017.8 hPa SSW 7.7 km/h 11.3 km/h 77% 0 mm 0 W/m2
05:39 11.1 °C 7.7 °C 1018.2 hPa SSW 6 km/h 11.3 km/h 77% 0 mm 0 W/m2
05:44 11.1 °C 7.7 °C 1018.2 hPa SSW 4.2 km/h 11.3 km/h 77% 0 mm 0 W/m2
05:49 10.9 °C 7.6 °C 1018.2 hPa SSW 5 km/h 9.7 km/h 77% 0 mm 0 W/m2
05:54 10.9 °C 7.6 °C 1018.2 hPa SSW 4.5 km/h 9.7 km/h 77.4% 0 mm 0 W/m2
05:59 10.8 °C 7.6 °C 1018.2 hPa SSW 5.3 km/h 9.7 km/h 78% 0 mm 0 W/m2
06:04 10.8 °C 7.6 °C 1017.8 hPa SSW 7.7 km/h 16.1 km/h 78% 0 mm 0 W/m2
06:09 10.8 °C 7.6 °C 1017.8 hPa SSW 4.7 km/h 16.1 km/h 78% 0 mm 0 W/m2
06:14 10.8 °C 7.7 °C 1017.8 hPa SSW 5.5 km/h 11.3 km/h 78.8% 0 mm 0 W/m2
06:19 10.8 °C 7.8 °C 1017.8 hPa South 6.4 km/h 19.3 km/h 79% 0 mm 0 W/m2
06:24 10.8 °C 7.8 °C 1017.8 hPa SSE 5 km/h 19.3 km/h 79% 0 mm 0 W/m2
06:29 10.8 °C 7.8 °C 1017.8 hPa SSE 4 km/h 8 km/h 79% 0 mm 0 W/m2
06:34 10.7 °C 7.7 °C 1017.8 hPa SSE 4 km/h 8 km/h 79% 0 mm 0 W/m2
06:39 10.7 °C 7.7 °C 1017.8 hPa SSE 5.1 km/h 9.7 km/h 79% 0 mm 0 W/m2
06:44 10.6 °C 7.6 °C 1017.5 hPa SSE 4.3 km/h 9.7 km/h 79.2% 0 mm 0 W/m2
06:49 10.4 °C 7.6 °C 1017.5 hPa SSE 4 km/h 6.4 km/h 79.6% 0 mm 0 W/m2
06:54 10.3 °C 7.6 °C 1017.5 hPa SSE 4 km/h 6.4 km/h 80% 0 mm 0 W/m2
06:59 10.3 °C 7.5 °C 1017.5 hPa SSE 4.8 km/h 8 km/h 80% 0 mm 0 W/m2
07:04 10.2 °C 7.4 °C 1017.5 hPa SSE 3.5 km/h 8 km/h 80% 0 mm 0 W/m2
07:09 10.2 °C 7.4 °C 1017.5 hPa SSE 4.7 km/h 8 km/h 80% 0 mm 0 W/m2
07:14 10.2 °C 7.6 °C 1017.5 hPa SSE 2.9 km/h 8 km/h 81% 0 mm 0 W/m2
07:19 10.2 °C 7.6 °C 1017.2 hPa SSE 5.1 km/h 11.3 km/h 81% 0 mm 0 W/m2
07:24 10.2 °C 7.6 °C 1017.2 hPa SSE 4 km/h 9.7 km/h 81% 0 mm 0 W/m2
07:29 10.2 °C 7.6 °C 1017.2 hPa SSE 4.5 km/h 8 km/h 81% 0 mm 0 W/m2
07:34 10.2 °C 7.6 °C 1017.2 hPa SSE 3.7 km/h 8 km/h 81% 0 mm 0 W/m2
07:39 10.2 °C 7.6 °C 1017.2 hPa SSE 2.6 km/h 6.4 km/h 81% 0 mm 0 W/m2
07:44 10.2 °C 7.7 °C 1017.2 hPa SSE 4.5 km/h 11.3 km/h 81.6% 0 mm 0 W/m2
07:49 10.3 °C 7.7 °C 1017.2 hPa SSE 4.2 km/h 8 km/h 81% 0 mm 7 W/m2
07:54 10.3 °C 7.7 °C 1017.2 hPa SSE 3.4 km/h 11.3 km/h 81% 0 mm 7 W/m2
07:59 10.3 °C 7.7 °C 1017.2 hPa SSE 4.3 km/h 11.3 km/h 81% 0 mm 7 W/m2
08:04 10.3 °C 7.8 °C 1016.8 hPa SSE 6.8 km/h 8 km/h 81% 0 mm 7 W/m2
08:09 10.3 °C 7.7 °C 1016.8 hPa SSE 2.6 km/h 9.7 km/h 81% 0 mm 7 W/m2
08:14 10.4 °C 7.8 °C 1016.8 hPa SSE 6.3 km/h 11.3 km/h 81% 0 mm 9 W/m2
08:19 10.6 °C 7.8 °C 1016.8 hPa SSE 7.7 km/h 12.9 km/h 80.2% 0 mm 12 W/m2
08:24 10.6 °C 7.8 °C 1016.8 hPa SSE 6.4 km/h 11.3 km/h 80% 0 mm 28 W/m2
08:29 10.7 °C 7.9 °C 1017.2 hPa SSE 7.1 km/h 16.1 km/h 80% 0 mm 32 W/m2
08:34 10.8 °C 8 °C 1017.2 hPa SSE 5 km/h 16.1 km/h 79.8% 0 mm 46 W/m2
08:39 11.1 °C 8.1 °C 1017.2 hPa SSE 8 km/h 14.5 km/h 79% 0 mm 49 W/m2
08:44 11.3 °C 8.2 °C 1017.2 hPa SSE 8.7 km/h 12.9 km/h 78.4% 0 mm 47 W/m2
08:49 11.3 °C 8.1 °C 1017.2 hPa SSE 7.7 km/h 17.7 km/h 78% 0 mm 58 W/m2
08:54 11.4 °C 8.2 °C 1017.2 hPa South 9 km/h 17.7 km/h 78% 0 mm 67 W/m2
08:59 11.5 °C 8.3 °C 1017.2 hPa South 8 km/h 19.3 km/h 78% 0 mm 77 W/m2
09:04 11.6 °C 8.4 °C 1017.2 hPa SSE 5.3 km/h 11.3 km/h 78% 0 mm 86 W/m2
09:09 11.7 °C 8.5 °C 1017.2 hPa SSE 9 km/h 17.7 km/h 78% 0 mm 91 W/m2
09:14 11.8 °C 8.6 °C 1017.2 hPa SSE 8 km/h 17.7 km/h 78% 0 mm 111 W/m2
09:19 11.8 °C 8.6 °C 1017.2 hPa SSE 8.5 km/h 16.1 km/h 78% 0 mm 167 W/m2
09:24 11.9 °C 8.8 °C 1017.2 hPa South 10 km/h 16.1 km/h 78.6% 0 mm 214 W/m2
09:29 12 °C 9 °C 1017.2 hPa South 5.1 km/h 16.1 km/h 78.8% 0 mm 199 W/m2
09:34 12.1 °C 9.1 °C 1017.2 hPa South 8.9 km/h 20.9 km/h 78.5% 0 mm 200 W/m2
09:39 12.2 °C 9.2 °C 1017.2 hPa South 11.3 km/h 24.1 km/h 78.8% 0 mm 186 W/m2
09:44 12.2 °C 9.2 °C 1017.2 hPa South 13.5 km/h 27.4 km/h 79% 0 mm 134 W/m2
09:49 12.2 °C 9.2 °C 1016.8 hPa South 10.6 km/h 27.4 km/h 79% 0 mm 104 W/m2
09:54 12.3 °C 9.2 °C 1016.8 hPa SSE 11.6 km/h 22.5 km/h 79% 0 mm 88 W/m2
09:59 12.3 °C 9.2 °C 1016.8 hPa South 15.1 km/h 30.6 km/h 79% 0 mm 114 W/m2
10:04 12.3 °C 9.4 °C 1016.8 hPa South 14.2 km/h 24.1 km/h 79.8% 0 mm 186 W/m2
10:09 12.4 °C 9.5 °C 1016.8 hPa South 12.9 km/h 19.3 km/h 80% 0 mm 151 W/m2
10:14 12.4 °C 9.5 °C 1016.8 hPa SSE 14.5 km/h 24.1 km/h 80% 0 mm 165 W/m2
10:19 12.6 °C 9.7 °C 1016.8 hPa South 8 km/h 20.9 km/h 80% 0 mm 137 W/m2
10:23 12.6 °C 9.7 °C 1016.8 hPa SSE 9.7 km/h 17.7 km/h 80% 0 mm 183 W/m2
10:29 12.7 °C 9.8 °C 1016.8 hPa SSE 7.7 km/h 17.7 km/h 80% 0 mm 178 W/m2
10:34 12.8 °C 9.9 °C 1016.8 hPa South 8.4 km/h 17.7 km/h 80% 0 mm 141 W/m2
10:39 12.8 °C 9.9 °C 1016.8 hPa South 8.4 km/h 17.7 km/h 80% 0 mm 156 W/m2
10:44 12.8 °C 9.9 °C 1016.8 hPa South 11.9 km/h 22.5 km/h 80% 0 mm 202 W/m2
10:49 12.9 °C 10 °C 1016.8 hPa South 10.1 km/h 20.9 km/h 80% 0 mm 200 W/m2
10:54 12.9 °C 10 °C 1016.5 hPa South 12.9 km/h 19.3 km/h 80% 0 mm 213 W/m2
10:59 12.9 °C 10 °C 1016.8 hPa South 14.5 km/h 25.7 km/h 80% 0 mm 167 W/m2
11:04 12.9 °C 10.1 °C 1016.8 hPa SSE 8.4 km/h 25.7 km/h 80% 0 mm 155 W/m2
11:09 13.1 °C 10.3 °C 1016.5 hPa SSE 6.1 km/h 14.5 km/h 81% 0 mm 158 W/m2
11:14 13.2 °C 10.4 °C 1016.5 hPa South 7.2 km/h 14.5 km/h 81% 0 mm 174 W/m2
11:19 13.2 °C 10.5 °C 1016.5 hPa SSE 10.5 km/h 19.3 km/h 81% 0 mm 190 W/m2
11:24 13.2 °C 10.5 °C 1016.1 hPa South 10.9 km/h 24.1 km/h 81% 0 mm 165 W/m2
11:29 13.3 °C 10.6 °C 1016.1 hPa SSE 12.9 km/h 22.5 km/h 81% 0 mm 155 W/m2
11:34 13.3 °C 10.6 °C 1016.1 hPa SSE 17.1 km/h 22.5 km/h 81% 0 mm 149 W/m2
11:39 13.3 °C 10.7 °C 1016.1 hPa South 14.5 km/h 25.7 km/h 81.3% 0 mm 158 W/m2
11:44 13.3 °C 10.8 °C 1016.1 hPa South 16.7 km/h 30.6 km/h 82% 0 mm 179 W/m2
11:49 13.3 °C 10.8 °C 1016.1 hPa SSE 13.8 km/h 32.2 km/h 82% 0 mm 229 W/m2
11:54 13.4 °C 10.9 °C 1016.1 hPa South 12.2 km/h 24.1 km/h 82% 0 mm 237 W/m2
11:59 13.4 °C 10.9 °C 1016.1 hPa South 13.2 km/h 24.1 km/h 82% 0 mm 148 W/m2
12:04 13.5 °C 11.2 °C 1016.1 hPa South 8.7 km/h 24.1 km/h 82.8% 0 mm 111 W/m2
12:09 13.4 °C 11.2 °C 1016.1 hPa South 10.6 km/h 25.7 km/h 83% 0 mm 127 W/m2
12:14 13.4 °C 11.1 °C 1016.1 hPa South 11.4 km/h 20.9 km/h 83.2% 0 mm 197 W/m2
12:19 13.4 °C 11.2 °C 1016.1 hPa SSE 8 km/h 20.9 km/h 84% 0.25 mm 209 W/m2
12:24 13.4 °C 11.4 °C 1016.1 hPa South 9.2 km/h 17.7 km/h 85% 0.25 mm 257 W/m2
12:29 13.4 °C 11.4 °C 1016.1 hPa South 7.2 km/h 14.5 km/h 85% 0.25 mm 114 W/m2
12:34 13.4 °C 11.5 °C 1016.1 hPa SSE 6.4 km/h 14.5 km/h 85.4% 0.25 mm 60 W/m2
12:39 13.4 °C 11.6 °C 1016.1 hPa South 7.7 km/h 14.5 km/h 86% 0.25 mm 63 W/m2
12:44 13.4 °C 11.6 °C 1016.1 hPa South 7.2 km/h 16.1 km/h 86% 0.25 mm 81 W/m2
12:49 13.4 °C 11.6 °C 1015.8 hPa SSW 7.6 km/h 16.1 km/h 86% 0.25 mm 111 W/m2
12:54 13.4 °C 11.6 °C 1015.8 hPa South 9 km/h 16.1 km/h 86% 0.25 mm 104 W/m2
12:59 13.5 °C 11.7 °C 1015.8 hPa South 7.4 km/h 17.7 km/h 86% 0.25 mm 149 W/m2
13:04 13.6 °C 11.8 °C 1015.8 hPa South 5.1 km/h 9.7 km/h 86% 0.25 mm 134 W/m2
13:09 13.6 °C 11.8 °C 1015.8 hPa South 9 km/h 19.3 km/h 86% 0.25 mm 90 W/m2
13:14 13.6 °C 11.8 °C 1015.8 hPa South 7.7 km/h 11.3 km/h 86% 0.25 mm 84 W/m2
13:19 13.6 °C 11.8 °C 1015.8 hPa South 5.5 km/h 14.5 km/h 86% 0 mm 141 W/m2
13:24 13.5 °C 11.7 °C 1015.5 hPa South 13.2 km/h 20.9 km/h 86% 0 mm 225 W/m2
13:29 13.6 °C 11.8 °C 1015.5 hPa South 11.6 km/h 24.1 km/h 86.2% 0 mm 209 W/m2
13:34 13.6 °C 11.9 °C 1015.5 hPa South 14.8 km/h 27.4 km/h 86.6% 0 mm 185 W/m2
13:39 13.6 °C 11.9 °C 1015.5 hPa South 10.3 km/h 24.1 km/h 86.8% 0 mm 153 W/m2
13:44 13.5 °C 11.9 °C 1015.5 hPa South 9.3 km/h 25.7 km/h 87% 0 mm 139 W/m2
13:49 13.4 °C 11.8 °C 1015.5 hPa South 14.2 km/h 22.5 km/h 87.2% 0 mm 125 W/m2
13:54 13.3 °C 11.8 °C 1015.5 hPa SSE 8.5 km/h 17.7 km/h 88% 0 mm 190 W/m2
13:59 13.4 °C 11.9 °C 1015.1 hPa South 7.9 km/h 14.5 km/h 88% 0 mm 207 W/m2
14:04 13.4 °C 11.9 °C 1015.1 hPa South 10.5 km/h 14.5 km/h 88% 0 mm 179 W/m2
14:09 13.5 °C 12 °C 1015.1 hPa South 8.7 km/h 16.1 km/h 88% 0 mm 125 W/m2
14:14 13.5 °C 12 °C 1015.1 hPa South 9.5 km/h 17.7 km/h 88% 0 mm 134 W/m2
14:19 13.6 °C 12.1 °C 1015.1 hPa South 10 km/h 17.7 km/h 88% 0 mm 248 W/m2
14:24 13.6 °C 12.1 °C 1015.1 hPa South 7.2 km/h 14.5 km/h 88% 0 mm 376 W/m2
14:29 13.7 °C 12.2 °C 1015.1 hPa South 8.2 km/h 16.1 km/h 88% 0 mm 295 W/m2
14:34 13.6 °C 12.2 °C 1015.1 hPa South 6.8 km/h 14.5 km/h 88.5% 0 mm 141 W/m2
14:39 13.7 °C 12.4 °C 1015.1 hPa South 7.4 km/h 17.7 km/h 89% 0 mm 139 W/m2
14:44 13.7 °C 12.4 °C 1015.1 hPa South 8.2 km/h 17.7 km/h 89% 0 mm 134 W/m2
14:49 13.7 °C 12.3 °C 1015.1 hPa South 5.1 km/h 14.5 km/h 88.6% 0 mm 93 W/m2
14:54 13.7 °C 12.3 °C 1015.1 hPa South 7.7 km/h 16.1 km/h 88.4% 0 mm 74 W/m2
14:59 13.7 °C 12.2 °C 1015.1 hPa SSW 6.8 km/h 16.1 km/h 88% 0 mm 77 W/m2
15:04 13.7 °C 12.2 °C 1014.8 hPa SSW 4.7 km/h 11.3 km/h 88% 0 mm 79 W/m2
15:09 13.8 °C 12.3 °C 1015.1 hPa SSW 5.6 km/h 16.1 km/h 88% 0 mm 69 W/m2
15:14 13.8 °C 12.3 °C 1014.8 hPa SSW 1.6 km/h 11.3 km/h 88% 0 mm 81 W/m2
15:19 13.8 °C 12.3 °C 1014.8 hPa SSW 6.3 km/h 14.5 km/h 88% 0 mm 90 W/m2
15:24 13.8 °C 12.3 °C 1014.8 hPa SSW 3.1 km/h 12.9 km/h 88% 0 mm 176 W/m2
15:29 13.8 °C 12.3 °C 1014.8 hPa SSW 7.1 km/h 11.3 km/h 88% 0 mm 139 W/m2
15:34 13.7 °C 12.3 °C 1014.4 hPa SSW 8.4 km/h 14.5 km/h 88.6% 0 mm 88 W/m2
15:39 13.7 °C 12.4 °C 1014.4 hPa SSW 6.6 km/h 14.5 km/h 89% 0 mm 65 W/m2
15:44 13.7 °C 12.4 °C 1014.4 hPa SSW 4.5 km/h 12.9 km/h 89% 0 mm 67 W/m2
15:49 13.7 °C 12.4 °C 1014.4 hPa SSW 6.6 km/h 12.9 km/h 89% 0 mm 47 W/m2
15:54 13.7 °C 12.5 °C 1014.4 hPa SSW 4.3 km/h 9.7 km/h 89.4% 0 mm 44 W/m2
15:59 13.7 °C 12.6 °C 1014.4 hPa SSW 4 km/h 11.3 km/h 90% 0 mm 42 W/m2
16:04 13.7 °C 12.6 °C 1014.8 hPa SSW 5.1 km/h 11.3 km/h 90% 0 mm 46 W/m2
16:09 13.8 °C 12.7 °C 1014.4 hPa SSW 2.3 km/h 6.4 km/h 90% 0 mm 56 W/m2
16:14 13.8 °C 12.7 °C 1014.8 hPa SSW 5.3 km/h 12.9 km/h 90% 0 mm 76 W/m2
16:19 13.7 °C 12.6 °C 1014.8 hPa SSW 4.7 km/h 11.3 km/h 90% 0 mm 84 W/m2
16:24 13.7 °C 12.7 °C 1014.8 hPa SSW 1.1 km/h 12.9 km/h 90% 0 mm 30 W/m2
16:29 13.8 °C 12.7 °C 1014.8 hPa SSW 2.1 km/h 6.4 km/h 90% 0 mm 53 W/m2
16:34 13.8 °C 12.7 °C 1014.8 hPa SSW 1.9 km/h 6.4 km/h 90% 0 mm 35 W/m2
16:39 13.8 °C 12.7 °C 1014.4 hPa SSW 3.9 km/h 9.7 km/h 90% 0 mm 91 W/m2
16:44 13.8 °C 12.8 °C 1014.4 hPa SSW 4.2 km/h 12.9 km/h 90% 0 mm 118 W/m2
16:49 13.9 °C 12.8 °C 1014.4 hPa SSW 8.7 km/h 12.9 km/h 90% 0 mm 139 W/m2
16:54 13.9 °C 12.8 °C 1014.1 hPa SSW 4.8 km/h 11.3 km/h 90% 0 mm 107 W/m2
16:59 14.1 °C 13 °C 1014.1 hPa SSW 3.4 km/h 9.7 km/h 90% 0 mm 88 W/m2
17:04 14.1 °C 13.1 °C 1014.1 hPa SSW 2.7 km/h 6.4 km/h 90.4% 0 mm 33 W/m2
17:09 14.1 °C 13 °C 1014.4 hPa SSW 3.2 km/h 8 km/h 90% 0 mm 26 W/m2
17:14 13.9 °C 12.8 °C 1014.4 hPa SSW 4.5 km/h 6.4 km/h 90% 0 mm 33 W/m2
17:19 13.9 °C 12.8 °C 1014.4 hPa SSW 5.1 km/h 8 km/h 90% 0 mm 23 W/m2
17:24 13.9 °C 12.8 °C 1014.4 hPa SSW 4 km/h 8 km/h 90% 0 mm 19 W/m2
17:29 13.8 °C 12.8 °C 1014.4 hPa SSW 4.3 km/h 8 km/h 90% 0 mm 18 W/m2
17:34 13.8 °C 12.7 °C 1014.4 hPa SSW 5.1 km/h 9.7 km/h 90% 0 mm 14 W/m2
17:39 13.8 °C 12.7 °C 1014.4 hPa SSW 3.4 km/h 9.7 km/h 90% 0 mm 11 W/m2
17:44 13.8 °C 12.7 °C 1014.4 hPa SSW 3.7 km/h 6.4 km/h 90% 0 mm 11 W/m2
17:49 13.8 °C 12.7 °C 1014.4 hPa SSW 4 km/h 11.3 km/h 90% 0 mm 9 W/m2
17:54 13.7 °C 12.7 °C 1014.4 hPa SSW 2.1 km/h 8 km/h 90% 0 mm 7 W/m2
17:59 13.7 °C 12.6 °C 1014.4 hPa SSW 3.5 km/h 6.4 km/h 90% 0 mm 5 W/m2
18:04 13.6 °C 12.5 °C 1014.4 hPa SSW 1.9 km/h 6.4 km/h 90% 0 mm 0 W/m2
18:09 13.5 °C 12.4 °C 1014.4 hPa SSW 0.8 km/h 3.2 km/h 90% 0 mm 0 W/m2
18:14 13.4 °C 12.3 °C 1014.4 hPa SSW 1 km/h 3.2 km/h 90% 0 mm 0 W/m2
18:19 13.3 °C 12.2 °C 1014.4 hPa SSW 2.4 km/h 6.4 km/h 90% 0 mm 0 W/m2
18:24 13.3 °C 12.2 °C 1014.4 hPa SSW 2.1 km/h 4.8 km/h 90% 0 mm 0 W/m2
18:29 13.2 °C 12.1 °C 1014.4 hPa SSW 3.1 km/h 6.4 km/h 90% 0 mm 0 W/m2
18:34 13.2 °C 12.1 °C 1014.4 hPa SSW 0.6 km/h 4.8 km/h 90% 0 mm 0 W/m2
18:39 13.1 °C 12 °C 1014.4 hPa SSW 1 km/h 4.8 km/h 90% 0 mm 0 W/m2
18:44 13 °C 11.9 °C 1014.4 hPa SSW 2.3 km/h 4.8 km/h 90% 0 mm 0 W/m2
18:49 12.9 °C 11.8 °C 1014.4 hPa SSW 4.2 km/h 8 km/h 90% 0 mm 0 W/m2
18:54 12.9 °C 11.8 °C 1014.4 hPa SSW 3.4 km/h 8 km/h 90% 0 mm 0 W/m2
18:59 12.9 °C 11.8 °C 1014.8 hPa SSW 2.7 km/h 6.4 km/h 90% 0 mm 0 W/m2
19:04 12.9 °C 11.8 °C 1014.8 hPa SSW 3.1 km/h 8 km/h 90.2% 0 mm 0 W/m2
19:09 12.9 °C 11.9 °C 1014.8 hPa SSW 2.3 km/h 8 km/h 90.8% 0 mm 0 W/m2
19:14 12.8 °C 11.8 °C 1014.8 hPa SSW 3.7 km/h 8 km/h 90% 0 mm 0 W/m2
19:19 12.8 °C 11.9 °C 1014.8 hPa SSW 5.1 km/h 8 km/h 90.8% 0 mm 0 W/m2
19:24 12.8 °C 11.9 °C 1014.8 hPa SSW 4.3 km/h 9.7 km/h 91% 0 mm 0 W/m2
19:29 12.8 °C 11.9 °C 1014.8 hPa SSW 4.8 km/h 9.7 km/h 91% 0 mm 0 W/m2
19:34 12.8 °C 11.9 °C 1014.8 hPa SSW 4.5 km/h 9.7 km/h 91% 0 mm 0 W/m2
19:39 12.7 °C 11.8 °C 1014.8 hPa SSW 4.8 km/h 9.7 km/h 91% 0 mm 0 W/m2
19:44 12.7 °C 11.8 °C 1014.8 hPa SSW 5.1 km/h 9.7 km/h 91% 0 mm 0 W/m2
19:49 12.7 °C 11.8 °C 1014.8 hPa SSW 3.9 km/h 9.7 km/h 91% 0 mm 0 W/m2
19:54 12.7 °C 11.8 °C 1014.8 hPa SSW 3.2 km/h 6.4 km/h 91% 0 mm 0 W/m2
19:59 12.7 °C 11.8 °C 1014.8 hPa SSW 3.4 km/h 9.7 km/h 91% 0 mm 0 W/m2
20:04 12.7 °C 11.8 °C 1014.8 hPa SSW 6 km/h 12.9 km/h 91% 0 mm 0 W/m2
20:09 12.7 °C 11.8 °C 1014.8 hPa SSW 4.3 km/h 16.1 km/h 91% 0 mm 0 W/m2
20:14 12.7 °C 11.8 °C 1014.8 hPa SSW 6.1 km/h 12.9 km/h 91% 0 mm 0 W/m2
20:19 12.8 °C 11.9 °C 1014.8 hPa SSW 7.4 km/h 14.5 km/h 91% 0 mm 0 W/m2
20:24 12.8 °C 11.9 °C 1014.4 hPa SSW 8.4 km/h 14.5 km/h 91% 0 mm 0 W/m2
20:29 12.8 °C 11.9 °C 1014.8 hPa SSW 6.6 km/h 14.5 km/h 91% 0 mm 0 W/m2
20:34 12.8 °C 11.9 °C 1014.8 hPa SSW 7.1 km/h 12.9 km/h 91% 0 mm 0 W/m2
20:39 12.9 °C 12 °C 1014.8 hPa SSW 7.2 km/h 12.9 km/h 91% 0 mm 0 W/m2
20:44 12.9 °C 12 °C 1014.8 hPa SSW 10 km/h 16.1 km/h 91% 0 mm 0 W/m2
20:49 12.9 °C 12 °C 1014.8 hPa SSW 5.1 km/h 12.9 km/h 91% 0 mm 0 W/m2
20:54 12.8 °C 11.9 °C 1014.8 hPa SSW 5.6 km/h 16.1 km/h 91% 0 mm 0 W/m2
20:59 12.8 °C 11.9 °C 1014.8 hPa SSW 7.4 km/h 12.9 km/h 91% 0 mm 0 W/m2
21:04 12.7 °C 11.8 °C 1014.8 hPa SSW 7.1 km/h 12.9 km/h 91% 0 mm 0 W/m2
21:09 12.7 °C 11.8 °C 1014.8 hPa SSW 8.4 km/h 14.5 km/h 91% 0 mm 0 W/m2
21:14 12.7 °C 11.8 °C 1014.8 hPa SSW 7.9 km/h 19.3 km/h 91% 0 mm 0 W/m2
21:19 12.7 °C 11.8 °C 1014.8 hPa SSW 7.6 km/h 19.3 km/h 91% 0 mm 0 W/m2
21:24 12.6 °C 11.7 °C 1014.8 hPa SSW 4.8 km/h 14.5 km/h 91% 0 mm 0 W/m2
21:29 12.6 °C 11.7 °C 1014.8 hPa SSW 7.2 km/h 14.5 km/h 91% 0 mm 0 W/m2
21:34 12.5 °C 11.6 °C 1014.8 hPa SSW 6.1 km/h 14.5 km/h 91% 0 mm 0 W/m2
21:39 12.4 °C 11.5 °C 1014.8 hPa SW 5.6 km/h 16.1 km/h 91% 0 mm 0 W/m2
21:44 12.4 °C 11.5 °C 1014.8 hPa SW 5.8 km/h 11.3 km/h 91% 0 mm 0 W/m2
21:49 12.3 °C 11.4 °C 1014.8 hPa SW 6.9 km/h 14.5 km/h 91% 0 mm 0 W/m2
21:54 12.3 °C 11.4 °C 1014.8 hPa SW 8.4 km/h 19.3 km/h 91% 0 mm 0 W/m2
21:59 12.3 °C 11.4 °C 1014.8 hPa SW 7.6 km/h 16.1 km/h 91% 0 mm 0 W/m2
22:04 12.3 °C 11.4 °C 1014.8 hPa SW 5.8 km/h 12.9 km/h 91% 0 mm 0 W/m2
22:09 12.2 °C 11.3 °C 1014.8 hPa SW 6.4 km/h 12.9 km/h 91% 0 mm 0 W/m2
22:14 12.2 °C 11.3 °C 1014.8 hPa SW 6.8 km/h 12.9 km/h 91% 0 mm 0 W/m2
22:19 12.2 °C 11.3 °C 1015.1 hPa SW 6.4 km/h 12.9 km/h 91% 0 mm 0 W/m2
22:24 12.2 °C 11.3 °C 1015.1 hPa SW 4.7 km/h 12.9 km/h 91% 0 mm 0 W/m2
22:29 12.2 °C 11.3 °C 1015.1 hPa SW 6.6 km/h 12.9 km/h 91% 0 mm 0 W/m2
22:34 12.1 °C 11.2 °C 1015.1 hPa SW 3.4 km/h 9.7 km/h 91% 0 mm 0 W/m2
22:39 12.1 °C 11.2 °C 1015.1 hPa SW 4.5 km/h 12.9 km/h 91% 0 mm 0 W/m2
22:44 12.1 °C 11.2 °C 1015.1 hPa SW 6.6 km/h 14.5 km/h 91% 0 mm 0 W/m2
22:49 12 °C 11.1 °C 1015.1 hPa SW 7.2 km/h 14.5 km/h 91% 0 mm 0 W/m2
22:54 12 °C 11.1 °C 1015.1 hPa SW 3.7 km/h 8 km/h 91% 0 mm 0 W/m2
22:59 11.9 °C 11 °C 1015.1 hPa SW 3.5 km/h 8 km/h 91% 0 mm 0 W/m2
23:04 11.9 °C 11 °C 1015.1 hPa SW 4.7 km/h 11.3 km/h 91% 0 mm 0 W/m2
23:09 11.9 °C 11 °C 1015.1 hPa SW 5.1 km/h 11.3 km/h 91% 0 mm 0 W/m2
23:14 11.9 °C 11 °C 1015.1 hPa SW 4 km/h 9.7 km/h 91% 0 mm 0 W/m2
23:19 11.8 °C 10.9 °C 1015.1 hPa SW 5.3 km/h 11.3 km/h 91% 0 mm 0 W/m2
23:24 11.8 °C 10.9 °C 1015.1 hPa SW 4 km/h 11.3 km/h 91% 0 mm 0 W/m2
23:29 11.8 °C 10.9 °C 1015.1 hPa SW 4 km/h 11.3 km/h 91% 0 mm 0 W/m2
23:34 11.7 °C 10.8 °C 1014.8 hPa SW 6.6 km/h 12.9 km/h 91% 0 mm 0 W/m2
23:39 11.7 °C 10.8 °C 1014.8 hPa SW 4.5 km/h 12.9 km/h 91% 0 mm 0 W/m2
23:44 11.7 °C 10.8 °C 1014.8 hPa SW 2.1 km/h 9.7 km/h 91% 0 mm 0 W/m2
23:49 11.6 °C 10.7 °C 1014.8 hPa SW 2.4 km/h 9.7 km/h 91% 0 mm 0 W/m2
23:54 11.6 °C 10.7 °C 1014.8 hPa SW 3.5 km/h 8 km/h 91% 0 mm 0 W/m2
23:59 11.6 °C 10.7 °C 1014.8 hPa SW 3.1 km/h 8 km/h 91% 0 mm 0 W/m2
Bath Spa Weather
Compliments of Weather Underground - 2 mb